Terminal Aerodrome Forecast
Issued by NWS

Home | Current Version | Previous Version | Text Only | Print | Product List | Glossary On
Versions: 1 2 3 4 5 6 7 8 9 10 11 12 13 14 15 16 17 18
909
FTUS43 KDVN 232337
TAFBRL
TAF
KBRL 232337Z 2400/2424 17006KT P6SM SCT035
     FM240900 16005KT 5SM BR SCT250
     FM241400 22010KT P6SM BKN150
     FM242000 26008KT P6SM BKN040=

USA.gov is the U.S. government's official web portal to all federal, state and local government web resources and services.